createdAt,value
2019-05-28T00:01:49.346Z,8.38
2019-05-28T00:04:18.192Z,3.37
2019-05-28T00:06:47.043Z,5.58
2019-05-28T00:09:15.998Z,8.47
2019-05-28T00:11:44.918Z,7.67
2019-05-28T00:14:13.762Z,6.10
2019-05-28T00:16:43.011Z,4.95
2019-05-28T00:19:11.845Z,5.92
2019-05-28T00:21:40.681Z,5.33
2019-05-28T00:24:09.976Z,7.08
2019-05-28T00:26:39.168Z,6.62
2019-05-28T00:29:08.345Z,6.80
2019-05-28T00:31:37.572Z,6.62
2019-05-28T00:34:06.883Z,7.47
2019-05-28T00:36:35.898Z,4.65
2019-05-28T00:39:06.930Z,8.68
2019-05-28T00:41:36.397Z,6.42
2019-05-28T00:44:05.749Z,8.20
2019-05-28T00:46:34.596Z,8.08
2019-05-28T00:49:03.544Z,6.35
2019-05-28T00:51:33.318Z,6.10
2019-05-28T00:54:02.160Z,7.73
2019-05-28T00:56:32.010Z,9.50
2019-05-28T00:59:01.311Z,8.07
2019-05-28T01:01:30.249Z,6.97
2019-05-28T01:03:59.194Z,7.92
2019-05-28T01:06:28.595Z,11.15
2019-05-28T01:08:57.848Z,9.23
2019-05-28T01:11:26.638Z,6.80
2019-05-28T01:13:55.775Z,6.78
2019-05-28T01:16:24.948Z,8.25
2019-05-28T01:18:53.985Z,8.75
2019-05-28T01:21:22.858Z,8.05
2019-05-28T01:23:51.718Z,7.83
2019-05-28T01:26:20.684Z,5.92
2019-05-28T01:28:50.144Z,8.05
2019-05-28T01:31:19.058Z,9.75
2019-05-28T01:33:47.940Z,5.15
2019-05-28T01:36:17.154Z,6.30
2019-05-28T01:38:46.417Z,9.13
2019-05-28T01:41:15.288Z,7.95
2019-05-28T01:43:44.532Z,6.37
2019-05-28T01:46:13.431Z,7.87
2019-05-28T01:48:42.610Z,7.67
2019-05-28T01:51:11.896Z,9.60
2019-05-28T01:53:40.806Z,7.62
2019-05-28T01:56:09.647Z,10.13
2019-05-28T01:58:38.462Z,6.95
2019-05-28T02:01:12.822Z,6.75
2019-05-28T02:03:37.986Z,6.60
2019-05-28T02:06:07.023Z,5.55
2019-05-28T02:08:35.969Z,8.45
2019-05-28T02:11:04.960Z,5.28
2019-05-28T02:13:33.763Z,9.33
2019-05-28T02:16:02.624Z,7.03
2019-05-28T02:18:31.447Z,9.15
2019-05-28T02:21:00.618Z,9.70
2019-05-28T02:23:29.585Z,6.80
2019-05-28T02:25:58.441Z,9.67
2019-05-28T02:28:28.046Z,7.10
2019-05-28T02:30:57.227Z,6.80
2019-05-28T02:33:26.090Z,7.80
2019-05-28T02:35:55.201Z,5.50
2019-05-28T02:38:24.165Z,8.98
2019-05-28T02:40:53.271Z,8.15
2019-05-28T02:43:22.285Z,9.60
2019-05-28T02:45:51.171Z,8.40
2019-05-28T02:48:20.020Z,10.32
2019-05-28T02:50:58.102Z,9.38
2019-05-28T02:53:27.470Z,10.95
2019-05-28T02:55:57.612Z,7.37
2019-05-28T02:58:36.625Z,7.57
2019-05-28T03:01:08.999Z,8.40
2019-05-28T03:03:37.899Z,6.95
2019-05-28T03:06:11.373Z,10.30
2019-05-28T03:08:40.330Z,8.08
2019-05-28T03:11:09.130Z,7.07
2019-05-28T03:13:38.365Z,5.50
2019-05-28T03:16:08.364Z,7.80
2019-05-28T03:18:38.911Z,8.38
2019-05-28T03:21:09.271Z,6.40
2019-05-28T03:23:39.590Z,6.15
2019-05-28T03:26:08.591Z,8.60
2019-05-28T03:28:37.788Z,7.90
2019-05-28T03:31:07.156Z,8.33
2019-05-28T03:33:36.161Z,8.03
2019-05-28T03:36:05.211Z,6.03
2019-05-28T03:38:34.530Z,7.85
2019-05-28T03:41:03.757Z,7.17
2019-05-28T03:43:32.603Z,7.00
2019-05-28T03:46:01.494Z,7.87
2019-05-28T03:48:30.325Z,8.08
2019-05-28T03:50:59.607Z,8.73
2019-05-28T03:53:28.500Z,7.03
2019-05-28T03:55:57.411Z,9.80
2019-05-28T03:58:26.333Z,8.10
2019-05-28T04:00:55.247Z,7.35
2019-05-28T04:03:24.218Z,9.35
2019-05-28T04:05:53.087Z,6.90
2019-05-28T04:08:21.998Z,8.30
2019-05-28T04:10:51.452Z,7.35
2019-05-28T04:13:20.466Z,9.48
2019-05-28T04:15:49.323Z,13.53
2019-05-28T04:18:18.304Z,9.48
2019-05-28T04:20:47.137Z,6.40
2019-05-28T04:23:16.461Z,9.13
2019-05-28T04:25:46.272Z,10.68
2019-05-28T04:28:15.229Z,7.78
2019-05-28T04:30:44.595Z,8.60
2019-05-28T04:33:13.567Z,8.13
2019-05-28T04:35:42.532Z,13.72
2019-05-28T04:38:11.459Z,13.50
2019-05-28T04:40:40.324Z,12.13
2019-05-28T04:43:09.279Z,11.78
2019-05-28T04:45:38.397Z,8.15
2019-05-28T04:48:07.587Z,9.55
2019-05-28T04:50:36.450Z,13.95
2019-05-28T04:53:05.415Z,12.85
2019-05-28T04:55:34.562Z,13.00
2019-05-28T04:58:03.500Z,15.20
2019-05-28T05:00:32.639Z,10.30
2019-05-28T05:03:01.586Z,9.03
2019-05-28T05:05:30.514Z,7.93
2019-05-28T05:07:59.449Z,9.53
2019-05-28T05:10:28.388Z,8.90
2019-05-28T05:12:57.165Z,13.07
2019-05-28T05:15:26.295Z,11.15
2019-05-28T05:17:55.344Z,11.35
2019-05-28T05:20:24.397Z,13.50
2019-05-28T05:22:53.322Z,16.37
2019-05-28T05:25:22.447Z,12.25
2019-05-28T05:27:52.070Z,13.62
2019-05-28T05:30:20.923Z,13.05
2019-05-28T05:32:49.986Z,15.03
2019-05-28T05:35:19.895Z,12.55
2019-05-28T05:37:48.754Z,12.85
2019-05-28T05:40:17.995Z,12.03
2019-05-28T05:42:47.410Z,12.20
2019-05-28T05:45:16.378Z,12.77
2019-05-28T05:47:45.230Z,13.32
2019-05-28T05:50:14.406Z,11.55
2019-05-28T05:52:43.325Z,17.25
2019-05-28T05:55:12.478Z,8.20
2019-05-28T05:57:42.066Z,8.00
2019-05-28T06:00:11.904Z,13.77
2019-05-28T06:02:41.054Z,9.98
2019-05-28T06:05:10.277Z,7.10
2019-05-28T06:07:39.322Z,11.35
2019-05-28T06:10:08.761Z,7.83
2019-05-28T06:12:37.590Z,9.10
2019-05-28T06:15:06.955Z,8.03
2019-05-28T06:17:36.672Z,7.83
2019-05-28T06:20:07.572Z,9.60
2019-05-28T06:22:36.884Z,10.00
2019-05-28T06:25:06.202Z,5.60
2019-05-28T06:27:35.696Z,9.70
2019-05-28T06:30:06.102Z,7.43
2019-05-28T06:32:36.238Z,6.75
2019-05-28T06:35:06.339Z,7.50
2019-05-28T06:37:35.286Z,9.10
2019-05-28T06:40:04.717Z,7.58
2019-05-28T06:42:38.798Z,10.60
2019-05-28T06:45:05.110Z,8.95
2019-05-28T06:47:33.950Z,7.30
2019-05-28T06:50:03.109Z,7.35
2019-05-28T06:52:32.071Z,10.93
2019-05-28T06:55:01.272Z,13.40
2019-05-28T06:57:30.474Z,8.70
2019-05-28T06:59:59.437Z,9.28
2019-05-28T07:02:28.287Z,11.25
2019-05-28T07:04:58.266Z,11.23
2019-05-28T07:07:27.400Z,11.90
2019-05-28T07:09:56.492Z,10.48
2019-05-28T07:12:25.364Z,6.70
2019-05-28T07:14:54.549Z,6.70
2019-05-28T07:17:23.759Z,11.00
2019-05-28T07:19:52.766Z,8.90
2019-05-28T07:22:22.250Z,7.60
2019-05-28T07:24:51.503Z,7.55
2019-05-28T07:27:20.361Z,6.95
2019-05-28T07:29:49.208Z,8.85
2019-05-28T07:32:18.463Z,8.60
2019-05-28T07:34:47.367Z,4.80
2019-05-28T07:37:16.184Z,5.50
2019-05-28T07:39:45.135Z,7.78
2019-05-28T07:42:14.478Z,7.50
2019-05-28T07:44:43.327Z,9.10
2019-05-28T07:47:12.195Z,6.60
2019-05-28T07:49:41.433Z,6.53
2019-05-28T07:52:10.626Z,6.33
2019-05-28T07:54:39.714Z,7.72
2019-05-28T07:57:08.763Z,4.08
2019-05-28T07:59:37.694Z,4.40
2019-05-28T08:02:06.730Z,5.20
2019-05-28T08:04:46.683Z,4.37
2019-05-28T08:07:06.396Z,7.28
2019-05-28T08:09:35.278Z,4.95
2019-05-28T08:12:04.525Z,7.05
2019-05-28T08:14:33.812Z,6.62
2019-05-28T08:17:02.694Z,6.62
2019-05-28T08:19:31.586Z,7.80
2019-05-28T08:22:00.864Z,5.40
2019-05-28T08:24:30.356Z,4.60
2019-05-28T08:26:59.860Z,7.20
2019-05-28T08:29:29.364Z,9.15
2019-05-28T08:31:58.285Z,4.62
2019-05-28T08:34:27.162Z,5.78
2019-05-28T08:37:06.039Z,9.03
2019-05-28T08:39:27.020Z,4.60
2019-05-28T08:41:56.481Z,7.22
2019-05-28T08:44:25.876Z,8.63
2019-05-28T08:46:54.816Z,5.72
2019-05-28T08:49:24.195Z,6.20
2019-05-28T08:51:53.515Z,8.28
2019-05-28T08:54:22.407Z,8.08
2019-05-28T08:56:51.418Z,5.77
2019-05-28T08:59:20.664Z,7.47
2019-05-28T09:01:49.525Z,6.90
2019-05-28T09:04:18.829Z,6.15
2019-05-28T09:06:47.694Z,10.95
2019-05-28T09:09:16.557Z,7.50
2019-05-28T09:11:45.846Z,7.22
2019-05-28T09:14:15.091Z,6.58
2019-05-28T09:16:44.225Z,8.30
2019-05-28T09:19:13.133Z,5.65
2019-05-28T09:21:42.116Z,6.40
2019-05-28T09:24:10.994Z,7.00
2019-05-28T09:26:39.999Z,7.35
2019-05-28T09:29:08.847Z,7.58
2019-05-28T09:31:38.402Z,6.10
2019-05-28T09:34:07.731Z,5.28
2019-05-28T09:36:37.192Z,8.53
2019-05-28T09:39:08.188Z,9.63
2019-05-28T09:41:37.121Z,6.70
2019-05-28T09:44:06.265Z,5.00
2019-05-28T09:46:35.173Z,12.58
2019-05-28T09:49:04.413Z,5.70
2019-05-28T09:51:33.324Z,7.20
2019-05-28T09:54:02.288Z,6.30
2019-05-28T09:56:32.781Z,7.92
2019-05-28T09:59:02.032Z,7.15
2019-05-28T10:01:30.934Z,6.25
2019-05-28T10:04:00.437Z,8.17
2019-05-28T10:06:37.200Z,7.30
2019-05-28T10:09:00.598Z,8.73
2019-05-28T10:11:30.095Z,10.40
2019-05-28T10:13:58.962Z,6.47
2019-05-28T10:16:28.147Z,8.33
2019-05-28T10:18:56.996Z,6.20
2019-05-28T10:21:26.234Z,9.90
2019-05-28T10:23:55.142Z,11.15
2019-05-28T10:26:24.456Z,7.53
2019-05-28T10:28:53.635Z,8.68
2019-05-28T10:31:22.471Z,7.37
2019-05-28T10:33:51.938Z,7.90
2019-05-28T10:36:34.945Z,9.13
2019-05-28T10:38:51.444Z,9.78
2019-05-28T10:41:20.604Z,8.38
2019-05-28T10:43:49.850Z,10.15
2019-05-28T10:46:18.783Z,11.78
2019-05-28T10:48:47.654Z,12.43
2019-05-28T10:51:16.571Z,9.35
2019-05-28T10:53:45.438Z,13.08
2019-05-28T10:56:14.295Z,8.68
2019-05-28T10:58:43.236Z,10.95
2019-05-28T11:01:12.175Z,12.35
2019-05-28T11:03:41.131Z,11.20
2019-05-28T11:06:10.130Z,11.25
2019-05-28T11:08:39.071Z,12.30
2019-05-28T11:11:08.282Z,14.05
2019-05-28T11:13:52.129Z,13.85
2019-05-28T11:16:07.903Z,16.27
2019-05-28T11:18:36.808Z,11.55
2019-05-28T11:21:09.812Z,14.73
2019-05-28T11:23:36.663Z,11.93
2019-05-28T11:26:06.215Z,12.90
2019-05-28T11:28:35.118Z,13.03
2019-05-28T11:31:03.962Z,16.55
2019-05-28T11:33:33.492Z,15.60
2019-05-28T11:36:02.595Z,17.77
2019-05-28T11:38:31.510Z,18.20
2019-05-28T11:41:00.931Z,16.00
2019-05-28T11:43:29.779Z,16.37
2019-05-28T11:45:59.037Z,18.27
2019-05-28T11:48:28.122Z,15.27
2019-05-28T11:50:57.065Z,17.77
2019-05-28T11:53:26.312Z,19.23
2019-05-28T11:55:55.285Z,20.37
2019-05-28T11:58:24.289Z,21.17
2019-05-28T12:00:53.216Z,25.70
2019-05-28T12:03:22.074Z,21.87
2019-05-28T12:05:51.422Z,20.53
2019-05-28T12:08:20.348Z,20.53
2019-05-28T12:10:49.219Z,21.00
2019-05-28T12:13:18.012Z,22.77
2019-05-28T12:15:46.945Z,24.02
2019-05-28T12:18:15.799Z,21.33
2019-05-28T12:20:44.730Z,19.82
2019-05-28T12:23:13.591Z,17.75
2019-05-28T12:25:42.588Z,18.60
2019-05-28T12:28:11.771Z,16.37
2019-05-28T12:30:40.611Z,18.15
2019-05-28T12:33:09.736Z,20.10
2019-05-28T12:35:42.666Z,19.00
2019-05-28T12:38:10.194Z,18.20
2019-05-28T12:40:47.958Z,17.73
2019-05-28T12:43:10.152Z,17.07
2019-05-28T12:45:39.275Z,16.42
2019-05-28T12:48:12.627Z,22.45
2019-05-28T12:50:38.757Z,27.25
2019-05-28T12:53:08.231Z,21.10
2019-05-28T12:55:37.457Z,18.42
2019-05-28T12:58:06.656Z,17.87
2019-05-28T13:00:35.782Z,13.18
2019-05-28T13:03:05.397Z,15.08
2019-05-28T13:05:34.572Z,16.53
2019-05-28T13:08:09.202Z,12.65
2019-05-28T13:10:34.433Z,12.47
2019-05-28T13:13:03.317Z,12.60
2019-05-28T13:15:32.282Z,13.78
2019-05-28T13:18:01.432Z,12.30
2019-05-28T13:20:30.327Z,17.87
2019-05-28T13:22:59.535Z,12.00
2019-05-28T13:25:28.721Z,10.93
2019-05-28T13:27:57.586Z,6.10
2019-05-28T13:30:26.443Z,7.62
2019-05-28T13:32:55.490Z,7.08
2019-05-28T13:35:24.904Z,8.08
2019-05-28T13:37:54.088Z,8.63
2019-05-28T13:40:23.302Z,6.75
2019-05-28T13:42:52.324Z,7.30
2019-05-28T13:45:21.399Z,6.72
2019-05-28T13:47:50.586Z,5.40
2019-05-28T13:50:20.103Z,3.42
2019-05-28T13:52:48.941Z,6.80
2019-05-28T13:55:18.467Z,8.00
2019-05-28T13:57:47.693Z,7.28
2019-05-28T14:00:17.144Z,9.85
2019-05-28T14:02:46.783Z,7.85
2019-05-28T14:05:18.939Z,8.85
2019-05-28T14:07:48.447Z,7.87
2019-05-28T14:10:17.738Z,10.50
2019-05-28T14:12:46.779Z,10.45
2019-05-28T14:15:15.791Z,11.43
2019-05-28T14:17:44.709Z,9.75
2019-05-28T14:20:14.193Z,11.33
2019-05-28T14:22:43.460Z,11.03
2019-05-28T14:25:12.756Z,10.25
2019-05-28T14:27:42.057Z,13.88
2019-05-28T14:30:12.809Z,12.07
2019-05-28T14:32:41.638Z,9.65
2019-05-28T14:35:10.741Z,10.28
2019-05-28T14:37:40.188Z,18.10
2019-05-28T14:40:11.928Z,13.10
2019-05-28T14:42:40.841Z,13.25
2019-05-28T14:45:10.623Z,14.00
2019-05-28T14:47:40.247Z,13.93
2019-05-28T14:50:09.897Z,15.08
2019-05-28T14:52:39.565Z,12.68
2019-05-28T14:55:08.693Z,11.28
2019-05-28T14:57:37.697Z,12.50
2019-05-28T15:00:07.096Z,13.25
2019-05-28T15:02:36.059Z,12.07
2019-05-28T15:05:05.882Z,12.58
2019-05-28T15:07:34.685Z,26.70
2019-05-28T15:10:03.846Z,20.32
2019-05-28T15:12:32.745Z,16.50
2019-05-28T15:15:02.343Z,21.65
2019-05-28T15:17:31.222Z,20.30
2019-05-28T15:20:00.191Z,20.55
2019-05-28T15:22:29.048Z,20.43
2019-05-28T15:24:58.006Z,23.25
2019-05-28T15:27:26.861Z,17.17
2019-05-28T15:29:56.013Z,15.57
2019-05-28T15:32:24.885Z,11.73
2019-05-28T15:34:53.744Z,12.40
2019-05-28T15:37:22.723Z,13.33
2019-05-28T15:39:51.770Z,11.90
2019-05-28T15:42:21.113Z,8.05
2019-05-28T15:44:50.261Z,13.05
2019-05-28T15:47:19.480Z,13.98
2019-05-28T15:49:48.657Z,9.10
2019-05-28T15:52:17.513Z,7.28
2019-05-28T15:54:46.737Z,9.30
2019-05-28T15:57:15.739Z,8.48
2019-05-28T15:59:44.619Z,14.18
2019-05-28T16:02:13.558Z,7.80
2019-05-28T16:04:43.315Z,7.55
2019-05-28T16:07:12.273Z,6.78
2019-05-28T16:09:55.051Z,9.00
2019-05-28T16:12:12.726Z,8.73
2019-05-28T16:14:41.696Z,12.03
2019-05-28T16:17:10.554Z,11.80
2019-05-28T16:19:39.486Z,10.40
2019-05-28T16:22:08.347Z,10.55
2019-05-28T16:24:37.221Z,11.50
2019-05-28T16:27:06.429Z,12.70
2019-05-28T16:29:35.386Z,12.18
2019-05-28T16:32:04.317Z,13.28
2019-05-28T16:34:33.261Z,11.97
2019-05-28T16:37:02.776Z,14.35
2019-05-28T16:39:31.747Z,13.13
2019-05-28T16:42:00.647Z,15.75
2019-05-28T16:44:29.446Z,14.40
2019-05-28T16:47:16.266Z,12.33
2019-05-28T16:49:29.259Z,14.63
2019-05-28T16:51:58.403Z,15.63
2019-05-28T16:54:27.297Z,13.45
2019-05-28T16:56:56.540Z,14.35
2019-05-28T16:59:25.442Z,13.38
2019-05-28T17:01:54.326Z,12.45
2019-05-28T17:04:23.282Z,12.18
2019-05-28T17:06:52.056Z,9.63
2019-05-28T17:09:20.934Z,11.53
2019-05-28T17:11:49.820Z,11.10
2019-05-28T17:14:18.664Z,9.50
2019-05-28T17:16:47.568Z,12.00
2019-05-28T17:19:16.518Z,10.53
2019-05-28T17:21:45.692Z,10.90
2019-05-28T17:24:14.576Z,12.33
2019-05-28T17:26:43.764Z,12.82
2019-05-28T17:29:12.718Z,10.55
2019-05-28T17:31:41.788Z,12.30
2019-05-28T17:34:10.765Z,12.70
2019-05-28T17:36:39.614Z,9.90
2019-05-28T17:39:08.980Z,12.88
2019-05-28T17:41:37.886Z,16.17
2019-05-28T17:44:06.819Z,13.40
2019-05-28T17:46:35.684Z,11.83
2019-05-28T17:49:05.143Z,13.03
2019-05-28T17:51:34.062Z,13.15
2019-05-28T17:54:03.985Z,15.68
2019-05-28T17:56:33.565Z,14.75
2019-05-28T17:59:02.742Z,12.68
2019-05-28T18:01:31.686Z,10.88
2019-05-28T18:04:00.590Z,13.78
2019-05-28T18:06:29.528Z,14.68
2019-05-28T18:08:58.830Z,12.93
2019-05-28T18:11:27.672Z,15.35
2019-05-28T18:13:56.574Z,11.30
2019-05-28T18:16:25.513Z,13.88
2019-05-28T18:18:54.378Z,12.00
2019-05-28T18:21:23.266Z,18.17
2019-05-28T18:23:52.158Z,11.43
2019-05-28T18:26:21.020Z,12.93
2019-05-28T18:28:50.254Z,11.90
2019-05-28T18:31:19.124Z,13.30
2019-05-28T18:33:48.232Z,10.70
2019-05-28T18:36:17.165Z,12.80
2019-05-28T18:38:46.047Z,11.50
2019-05-28T18:41:21.564Z,12.50
2019-05-28T18:43:46.163Z,10.95
2019-05-28T18:46:15.736Z,11.22
2019-05-28T18:48:44.700Z,14.10
2019-05-28T18:51:13.977Z,12.05
2019-05-28T18:53:42.946Z,9.38
2019-05-28T18:56:17.535Z,10.65
2019-05-28T18:58:42.636Z,11.70
2019-05-28T19:01:11.490Z,14.25
2019-05-28T19:03:40.478Z,11.15
2019-05-28T19:06:09.416Z,11.53
2019-05-28T19:08:38.265Z,8.30
2019-05-28T19:11:07.262Z,11.90
2019-05-28T19:13:36.272Z,13.35
2019-05-28T19:16:05.240Z,12.53
2019-05-28T19:18:34.030Z,12.73
2019-05-28T19:21:02.975Z,10.30
2019-05-28T19:23:31.929Z,9.40
2019-05-28T19:26:01.281Z,9.73
2019-05-28T19:28:30.142Z,9.88
2019-05-28T19:30:58.912Z,10.55
2019-05-28T19:33:27.850Z,13.13
2019-05-28T19:35:56.953Z,8.00
2019-05-28T19:38:26.062Z,8.30
2019-05-28T19:40:55.236Z,9.00
2019-05-28T19:43:24.524Z,8.53
2019-05-28T19:45:54.169Z,7.15
2019-05-28T19:48:23.351Z,9.65
2019-05-28T19:50:52.209Z,12.37
2019-05-28T19:53:21.172Z,11.00
2019-05-28T19:55:50.007Z,10.28
2019-05-28T19:58:19.050Z,8.80
2019-05-28T20:00:48.226Z,8.78
2019-05-28T20:03:17.075Z,10.40
2019-05-28T20:05:46.009Z,10.50
2019-05-28T20:08:14.904Z,9.15
2019-05-28T20:10:44.092Z,11.28
2019-05-28T20:13:13.043Z,10.68
2019-05-28T20:15:41.979Z,10.30
2019-05-28T20:18:25.897Z,9.18
2019-05-28T20:20:41.854Z,7.50
2019-05-28T20:23:11.309Z,8.33
2019-05-28T20:25:40.059Z,8.25
2019-05-28T20:28:09.241Z,9.98
2019-05-28T20:30:38.195Z,8.98
2019-05-28T20:33:07.453Z,7.05
2019-05-28T20:35:36.400Z,8.10
2019-05-28T20:38:08.993Z,11.38
2019-05-28T20:40:36.033Z,8.88
2019-05-28T20:43:06.104Z,12.40
2019-05-28T20:45:35.047Z,14.00
2019-05-28T20:48:04.704Z,10.60
2019-05-28T20:50:33.904Z,11.38
2019-05-28T20:53:02.795Z,8.90
2019-05-28T20:55:31.926Z,18.02
2019-05-28T20:58:00.789Z,13.68
2019-05-28T21:00:30.123Z,10.10
2019-05-28T21:02:59.310Z,13.25
2019-05-28T21:05:28.519Z,11.10
2019-05-28T21:07:58.391Z,12.82
2019-05-28T21:10:27.438Z,10.43
2019-05-28T21:12:56.987Z,11.12
2019-05-28T21:15:25.818Z,8.93
2019-05-28T21:17:55.421Z,9.65
2019-05-28T21:20:24.439Z,9.15
2019-05-28T21:22:53.766Z,7.45
2019-05-28T21:25:22.999Z,7.58
2019-05-28T21:27:52.510Z,8.13
2019-05-28T21:30:21.617Z,8.30
2019-05-28T21:32:50.663Z,7.58
2019-05-28T21:35:19.631Z,5.95
2019-05-28T21:37:48.487Z,7.80
2019-05-28T21:40:17.531Z,4.80
2019-05-28T21:42:58.605Z,8.95
2019-05-28T21:45:18.843Z,5.80
2019-05-28T21:47:47.951Z,7.17
2019-05-28T21:50:17.326Z,4.58
2019-05-28T21:52:46.097Z,7.37
2019-05-28T21:55:15.571Z,6.45
2019-05-28T21:57:44.545Z,7.50
2019-05-28T22:00:21.202Z,10.60
2019-05-28T22:02:50.146Z,10.35
2019-05-28T22:05:19.067Z,6.10
2019-05-28T22:07:48.032Z,9.60
2019-05-28T22:10:16.970Z,6.25
2019-05-28T22:12:45.874Z,7.70
2019-05-28T22:15:15.459Z,4.83
2019-05-28T22:17:44.744Z,7.05
2019-05-28T22:20:14.156Z,5.00
2019-05-28T22:22:43.762Z,4.50
2019-05-28T22:25:12.964Z,3.70
2019-05-28T22:27:41.929Z,4.28
2019-05-28T22:30:11.968Z,8.53
2019-05-28T22:32:40.842Z,4.60
2019-05-28T22:35:10.264Z,5.78
2019-05-28T22:37:39.266Z,6.40
2019-05-28T22:40:08.489Z,6.25
2019-05-28T22:42:37.852Z,5.15
2019-05-28T22:45:07.212Z,7.30
2019-05-28T22:47:36.186Z,5.90
2019-05-28T22:50:20.482Z,3.15
2019-05-28T22:52:35.960Z,5.47
2019-05-28T22:55:05.974Z,5.90
2019-05-28T22:57:35.114Z,4.95
2019-05-28T23:00:04.682Z,3.00
2019-05-28T23:02:33.508Z,4.47
2019-05-28T23:05:03.188Z,4.37
2019-05-28T23:07:32.011Z,4.05
2019-05-28T23:10:01.575Z,6.42
2019-05-28T23:12:30.903Z,3.52
2019-05-28T23:14:59.834Z,4.67
2019-05-28T23:17:28.969Z,5.75
2019-05-28T23:19:57.896Z,6.00
2019-05-28T23:22:26.858Z,4.20
2019-05-28T23:24:56.163Z,4.20
2019-05-28T23:27:24.965Z,3.62
2019-05-28T23:29:53.889Z,7.90
2019-05-28T23:32:22.783Z,4.35
2019-05-28T23:34:52.153Z,5.80
2019-05-28T23:37:21.328Z,6.65
2019-05-28T23:39:50.183Z,4.03
2019-05-28T23:42:19.123Z,6.50
2019-05-28T23:44:48.718Z,5.53
2019-05-28T23:47:17.678Z,3.55
2019-05-28T23:49:46.540Z,3.70
2019-05-28T23:52:15.419Z,3.58
2019-05-28T23:54:44.486Z,4.70
2019-05-28T23:57:14.041Z,3.50
2019-05-28T23:59:42.939Z,3.00
